sensor_id;sensor_type;location;lat;lon;timestamp;P1;durP1;ratioP1;P2;durP2;ratioP2
56537;SDS011;42435;53.292;6.000;2023-10-19T00:00:32;25.70;;;15.25;;
56537;SDS011;42435;53.292;6.000;2023-10-19T00:03:04;26.73;;;16.63;;
56537;SDS011;42435;53.292;6.000;2023-10-19T00:05:31;26.58;;;15.73;;
56537;SDS011;42435;53.292;6.000;2023-10-19T00:07:57;25.80;;;15.85;;
56537;SDS011;42435;53.292;6.000;2023-10-19T00:10:27;24.23;;;14.93;;
56537;SDS011;42435;53.292;6.000;2023-10-19T00:12:59;25.02;;;17.10;;
56537;SDS011;42435;53.292;6.000;2023-10-19T00:15:29;29.75;;;16.92;;
56537;SDS011;42435;53.292;6.000;2023-10-19T00:17:57;28.80;;;17.08;;
56537;SDS011;42435;53.292;6.000;2023-10-19T00:20:30;27.65;;;16.50;;
56537;SDS011;42435;53.292;6.000;2023-10-19T00:23:31;24.95;;;14.30;;
56537;SDS011;42435;53.292;6.000;2023-10-19T00:25:58;28.92;;;17.13;;
56537;SDS011;42435;53.292;6.000;2023-10-19T00:28:25;29.10;;;17.65;;
56537;SDS011;42435;53.292;6.000;2023-10-19T00:30:55;33.78;;;18.50;;
56537;SDS011;42435;53.292;6.000;2023-10-19T00:33:28;29.90;;;17.67;;
56537;SDS011;42435;53.292;6.000;2023-10-19T00:35:54;37.17;;;19.52;;
56537;SDS011;42435;53.292;6.000;2023-10-19T00:38:32;28.73;;;17.30;;
56537;SDS011;42435;53.292;6.000;2023-10-19T00:41:01;30.58;;;19.23;;
56537;SDS011;42435;53.292;6.000;2023-10-19T00:43:30;30.58;;;19.30;;
56537;SDS011;42435;53.292;6.000;2023-10-19T00:46:08;31.02;;;20.00;;
56537;SDS011;42435;53.292;6.000;2023-10-19T00:48:55;35.78;;;19.80;;
56537;SDS011;42435;53.292;6.000;2023-10-19T00:54:43;39.35;;;22.38;;
56537;SDS011;42435;53.292;6.000;2023-10-19T00:57:11;31.50;;;19.92;;
56537;SDS011;42435;53.292;6.000;2023-10-19T00:59:38;37.53;;;20.98;;
56537;SDS011;42435;53.292;6.000;2023-10-19T01:02:08;37.50;;;21.80;;
56537;SDS011;42435;53.292;6.000;2023-10-19T01:04:42;44.13;;;24.05;;
56537;SDS011;42435;53.292;6.000;2023-10-19T01:07:10;35.75;;;21.35;;
56537;SDS011;42435;53.292;6.000;2023-10-19T01:09:46;37.50;;;21.63;;
56537;SDS011;42435;53.292;6.000;2023-10-19T01:12:12;36.58;;;21.52;;
56537;SDS011;42435;53.292;6.000;2023-10-19T01:15:00;38.72;;;21.15;;
56537;SDS011;42435;53.292;6.000;2023-10-19T01:17:38;34.00;;;19.45;;
56537;SDS011;42435;53.292;6.000;2023-10-19T01:23:05;38.53;;;22.00;;
56537;SDS011;42435;53.292;6.000;2023-10-19T01:28:19;38.08;;;22.50;;
56537;SDS011;42435;53.292;6.000;2023-10-19T01:30:47;37.35;;;21.17;;
56537;SDS011;42435;53.292;6.000;2023-10-19T01:33:16;47.22;;;24.50;;
56537;SDS011;42435;53.292;6.000;2023-10-19T01:35:43;40.30;;;22.60;;
56537;SDS011;42435;53.292;6.000;2023-10-19T01:38:29;39.83;;;22.75;;
56537;SDS011;42435;53.292;6.000;2023-10-19T01:40:59;43.22;;;25.30;;
56537;SDS011;42435;53.292;6.000;2023-10-19T01:43:25;44.58;;;25.08;;
56537;SDS011;42435;53.292;6.000;2023-10-19T01:45:56;39.63;;;22.75;;
56537;SDS011;42435;53.292;6.000;2023-10-19T01:48:36;45.35;;;23.75;;
56537;SDS011;42435;53.292;6.000;2023-10-19T01:51:04;44.58;;;25.15;;
56537;SDS011;42435;53.292;6.000;2023-10-19T01:53:31;42.45;;;25.02;;
56537;SDS011;42435;53.292;6.000;2023-10-19T01:56:04;41.30;;;25.20;;
56537;SDS011;42435;53.292;6.000;2023-10-19T01:58:34;40.88;;;24.20;;
56537;SDS011;42435;53.292;6.000;2023-10-19T02:01:04;42.17;;;25.00;;
56537;SDS011;42435;53.292;6.000;2023-10-19T02:03:39;39.28;;;23.10;;
56537;SDS011;42435;53.292;6.000;2023-10-19T02:06:07;43.15;;;24.63;;
56537;SDS011;42435;53.292;6.000;2023-10-19T02:08:55;42.28;;;22.77;;
56537;SDS011;42435;53.292;6.000;2023-10-19T02:11:25;35.85;;;22.50;;
56537;SDS011;42435;53.292;6.000;2023-10-19T02:13:53;38.20;;;23.38;;
56537;SDS011;42435;53.292;6.000;2023-10-19T02:16:21;37.83;;;22.20;;
56537;SDS011;42435;53.292;6.000;2023-10-19T02:18:51;38.42;;;23.00;;
56537;SDS011;42435;53.292;6.000;2023-10-19T02:21:17;33.97;;;21.88;;
56537;SDS011;42435;53.292;6.000;2023-10-19T02:23:54;38.45;;;23.20;;
56537;SDS011;42435;53.292;6.000;2023-10-19T02:26:20;36.47;;;22.25;;
56537;SDS011;42435;53.292;6.000;2023-10-19T02:28:51;39.13;;;23.23;;
56537;SDS011;42435;53.292;6.000;2023-10-19T02:31:17;34.97;;;21.33;;
56537;SDS011;42435;53.292;6.000;2023-10-19T02:33:45;40.35;;;21.95;;
56537;SDS011;42435;53.292;6.000;2023-10-19T02:36:11;32.72;;;19.15;;
56537;SDS011;42435;53.292;6.000;2023-10-19T02:38:39;31.15;;;19.17;;
56537;SDS011;42435;53.292;6.000;2023-10-19T02:41:05;35.97;;;21.85;;
56537;SDS011;42435;53.292;6.000;2023-10-19T02:43:31;35.63;;;21.27;;
56537;SDS011;42435;53.292;6.000;2023-10-19T02:45:58;26.48;;;16.92;;
56537;SDS011;42435;53.292;6.000;2023-10-19T02:48:24;28.27;;;17.40;;
56537;SDS011;42435;53.292;6.000;2023-10-19T02:50:50;30.17;;;17.77;;
56537;SDS011;42435;53.292;6.000;2023-10-19T02:53:16;31.92;;;19.17;;
56537;SDS011;42435;53.292;6.000;2023-10-19T02:55:44;38.35;;;20.45;;
56537;SDS011;42435;53.292;6.000;2023-10-19T02:58:09;27.23;;;17.15;;
56537;SDS011;42435;53.292;6.000;2023-10-19T03:00:39;25.88;;;16.88;;
56537;SDS011;42435;53.292;6.000;2023-10-19T03:03:07;26.67;;;16.77;;
56537;SDS011;42435;53.292;6.000;2023-10-19T03:05:33;27.95;;;17.33;;
56537;SDS011;42435;53.292;6.000;2023-10-19T03:07:59;35.30;;;19.05;;
56537;SDS011;42435;53.292;6.000;2023-10-19T03:10:31;22.20;;;14.23;;
56537;SDS011;42435;53.292;6.000;2023-10-19T03:13:07;25.05;;;15.38;;
56537;SDS011;42435;53.292;6.000;2023-10-19T03:15:33;24.92;;;15.55;;
56537;SDS011;42435;53.292;6.000;2023-10-19T03:18:00;22.65;;;13.52;;
56537;SDS011;42435;53.292;6.000;2023-10-19T03:20:27;19.63;;;14.05;;
56537;SDS011;42435;53.292;6.000;2023-10-19T03:22:58;21.52;;;13.35;;
56537;SDS011;42435;53.292;6.000;2023-10-19T03:25:26;21.70;;;14.10;;
56537;SDS011;42435;53.292;6.000;2023-10-19T03:28:11;20.35;;;12.25;;
56537;SDS011;42435;53.292;6.000;2023-10-19T03:30:37;18.77;;;12.50;;
56537;SDS011;42435;53.292;6.000;2023-10-19T03:33:06;20.83;;;13.38;;
56537;SDS011;42435;53.292;6.000;2023-10-19T03:35:35;17.90;;;12.30;;
56537;SDS011;42435;53.292;6.000;2023-10-19T03:38:02;18.20;;;12.02;;
56537;SDS011;42435;53.292;6.000;2023-10-19T03:40:33;18.50;;;12.18;;
56537;SDS011;42435;53.292;6.000;2023-10-19T03:43:03;21.65;;;12.65;;
56537;SDS011;42435;53.292;6.000;2023-10-19T03:45:39;17.33;;;12.10;;
56537;SDS011;42435;53.292;6.000;2023-10-19T03:48:09;22.92;;;13.05;;
56537;SDS011;42435;53.292;6.000;2023-10-19T03:50:35;20.48;;;12.75;;
56537;SDS011;42435;53.292;6.000;2023-10-19T03:53:02;18.48;;;12.07;;
56537;SDS011;42435;53.292;6.000;2023-10-19T03:55:29;20.98;;;12.85;;
56537;SDS011;42435;53.292;6.000;2023-10-19T03:57:55;26.80;;;14.55;;
56537;SDS011;42435;53.292;6.000;2023-10-19T04:00:21;19.55;;;12.55;;
56537;SDS011;42435;53.292;6.000;2023-10-19T04:02:50;18.55;;;12.50;;
56537;SDS011;42435;53.292;6.000;2023-10-19T04:05:20;18.52;;;12.30;;
56537;SDS011;42435;53.292;6.000;2023-10-19T04:07:47;25.95;;;13.75;;
56537;SDS011;42435;53.292;6.000;2023-10-19T04:10:19;19.08;;;12.80;;
56537;SDS011;42435;53.292;6.000;2023-10-19T04:12:54;24.25;;;13.57;;
56537;SDS011;42435;53.292;6.000;2023-10-19T04:15:20;18.63;;;11.27;;
56537;SDS011;42435;53.292;6.000;2023-10-19T04:17:46;20.20;;;12.57;;
56537;SDS011;42435;53.292;6.000;2023-10-19T04:20:17;18.20;;;11.32;;
56537;SDS011;42435;53.292;6.000;2023-10-19T04:22:44;16.23;;;10.88;;
56537;SDS011;42435;53.292;6.000;2023-10-19T04:25:10;17.45;;;10.60;;
56537;SDS011;42435;53.292;6.000;2023-10-19T04:27:37;16.70;;;10.80;;
56537;SDS011;42435;53.292;6.000;2023-10-19T04:30:09;19.48;;;11.00;;
56537;SDS011;42435;53.292;6.000;2023-10-19T04:32:47;27.38;;;13.20;;
56537;SDS011;42435;53.292;6.000;2023-10-19T04:35:18;18.15;;;11.43;;
56537;SDS011;42435;53.292;6.000;2023-10-19T04:37:51;18.40;;;11.43;;
56537;SDS011;42435;53.292;6.000;2023-10-19T04:40:18;20.27;;;11.93;;
56537;SDS011;42435;53.292;6.000;2023-10-19T04:42:45;16.25;;;11.32;;
56537;SDS011;42435;53.292;6.000;2023-10-19T04:45:11;16.27;;;11.10;;
56537;SDS011;42435;53.292;6.000;2023-10-19T04:47:38;16.02;;;10.77;;
56537;SDS011;42435;53.292;6.000;2023-10-19T04:50:07;18.63;;;11.05;;
56537;SDS011;42435;53.292;6.000;2023-10-19T04:52:33;18.48;;;11.43;;
56537;SDS011;42435;53.292;6.000;2023-10-19T04:54:59;24.73;;;12.77;;
56537;SDS011;42435;53.292;6.000;2023-10-19T04:57:26;19.20;;;11.32;;
56537;SDS011;42435;53.292;6.000;2023-10-19T04:59:52;17.25;;;11.27;;
56537;SDS011;42435;53.292;6.000;2023-10-19T05:02:17;17.25;;;10.68;;
56537;SDS011;42435;53.292;6.000;2023-10-19T05:04:43;22.15;;;11.82;;
56537;SDS011;42435;53.292;6.000;2023-10-19T05:07:10;16.63;;;10.70;;
56537;SDS011;42435;53.292;6.000;2023-10-19T05:09:42;22.75;;;12.43;;
56537;SDS011;42435;53.292;6.000;2023-10-19T05:12:11;19.85;;;10.27;;
56537;SDS011;42435;53.292;6.000;2023-10-19T05:14:38;15.20;;;9.23;;
56537;SDS011;42435;53.292;6.000;2023-10-19T05:17:04;20.20;;;11.63;;
56537;SDS011;42435;53.292;6.000;2023-10-19T05:19:30;16.08;;;10.68;;
56537;SDS011;42435;53.292;6.000;2023-10-19T05:21:56;19.95;;;11.25;;
56537;SDS011;42435;53.292;6.000;2023-10-19T05:24:22;17.05;;;10.80;;
56537;SDS011;42435;53.292;6.000;2023-10-19T05:26:48;15.82;;;9.48;;
56537;SDS011;42435;53.292;6.000;2023-10-19T05:29:14;15.25;;;9.27;;
56537;SDS011;42435;53.292;6.000;2023-10-19T05:31:40;15.05;;;9.60;;
56537;SDS011;42435;53.292;6.000;2023-10-19T05:34:06;16.30;;;9.52;;
56537;SDS011;42435;53.292;6.000;2023-10-19T05:36:33;16.48;;;9.32;;
56537;SDS011;42435;53.292;6.000;2023-10-19T05:38:59;20.80;;;10.95;;
56537;SDS011;42435;53.292;6.000;2023-10-19T05:41:24;13.00;;;9.10;;
56537;SDS011;42435;53.292;6.000;2023-10-19T05:43:51;17.83;;;9.80;;
56537;SDS011;42435;53.292;6.000;2023-10-19T05:46:18;12.73;;;8.55;;
56537;SDS011;42435;53.292;6.000;2023-10-19T05:48:46;13.13;;;8.77;;
56537;SDS011;42435;53.292;6.000;2023-10-19T05:51:14;14.82;;;8.82;;
56537;SDS011;42435;53.292;6.000;2023-10-19T05:53:40;9.35;;;6.78;;
56537;SDS011;42435;53.292;6.000;2023-10-19T05:56:06;10.10;;;7.53;;
56537;SDS011;42435;53.292;6.000;2023-10-19T05:58:32;13.38;;;7.90;;
56537;SDS011;42435;53.292;6.000;2023-10-19T06:00:58;11.32;;;7.85;;
56537;SDS011;42435;53.292;6.000;2023-10-19T06:03:24;17.50;;;9.50;;
56537;SDS011;42435;53.292;6.000;2023-10-19T06:05:49;19.73;;;10.23;;
56537;SDS011;42435;53.292;6.000;2023-10-19T06:08:15;10.82;;;7.53;;
56537;SDS011;42435;53.292;6.000;2023-10-19T06:10:41;9.13;;;6.93;;
56537;SDS011;42435;53.292;6.000;2023-10-19T06:13:07;10.77;;;7.95;;
56537;SDS011;42435;53.292;6.000;2023-10-19T06:15:35;9.63;;;6.72;;
56537;SDS011;42435;53.292;6.000;2023-10-19T06:18:00;15.35;;;7.97;;
56537;SDS011;42435;53.292;6.000;2023-10-19T06:20:26;18.88;;;8.88;;
56537;SDS011;42435;53.292;6.000;2023-10-19T06:22:56;8.65;;;6.63;;
56537;SDS011;42435;53.292;6.000;2023-10-19T06:25:29;12.57;;;8.13;;
56537;SDS011;42435;53.292;6.000;2023-10-19T06:27:54;11.10;;;6.95;;
56537;SDS011;42435;53.292;6.000;2023-10-19T06:30:22;11.13;;;7.97;;
56537;SDS011;42435;53.292;6.000;2023-10-19T06:32:49;10.15;;;7.13;;
56537;SDS011;42435;53.292;6.000;2023-10-19T06:35:16;8.73;;;6.63;;
56537;SDS011;42435;53.292;6.000;2023-10-19T06:37:43;9.63;;;6.97;;
56537;SDS011;42435;53.292;6.000;2023-10-19T06:40:09;11.70;;;7.18;;
56537;SDS011;42435;53.292;6.000;2023-10-19T06:42:37;10.00;;;6.90;;
56537;SDS011;42435;53.292;6.000;2023-10-19T06:45:04;9.20;;;6.50;;
56537;SDS011;42435;53.292;6.000;2023-10-19T06:47:30;13.25;;;7.82;;
56537;SDS011;42435;53.292;6.000;2023-10-19T06:50:02;9.57;;;7.32;;
56537;SDS011;42435;53.292;6.000;2023-10-19T06:52:30;7.95;;;6.68;;
56537;SDS011;42435;53.292;6.000;2023-10-19T06:54:57;9.70;;;6.93;;
56537;SDS011;42435;53.292;6.000;2023-10-19T06:57:26;9.40;;;7.20;;
56537;SDS011;42435;53.292;6.000;2023-10-19T06:59:52;13.30;;;8.35;;
56537;SDS011;42435;53.292;6.000;2023-10-19T07:02:18;10.95;;;7.57;;
56537;SDS011;42435;53.292;6.000;2023-10-19T07:04:45;13.45;;;8.18;;
56537;SDS011;42435;53.292;6.000;2023-10-19T07:07:12;8.75;;;6.50;;
56537;SDS011;42435;53.292;6.000;2023-10-19T07:09:39;9.05;;;6.68;;
56537;SDS011;42435;53.292;6.000;2023-10-19T07:12:06;9.10;;;7.30;;
56537;SDS011;42435;53.292;6.000;2023-10-19T07:14:33;10.48;;;7.00;;
56537;SDS011;42435;53.292;6.000;2023-10-19T07:17:00;12.07;;;6.80;;
56537;SDS011;42435;53.292;6.000;2023-10-19T07:19:25;12.23;;;7.68;;
56537;SDS011;42435;53.292;6.000;2023-10-19T07:21:51;8.88;;;6.65;;
56537;SDS011;42435;53.292;6.000;2023-10-19T07:24:23;9.50;;;6.85;;
56537;SDS011;42435;53.292;6.000;2023-10-19T07:26:49;7.47;;;5.70;;
56537;SDS011;42435;53.292;6.000;2023-10-19T07:29:21;10.50;;;6.72;;
56537;SDS011;42435;53.292;6.000;2023-10-19T07:31:47;8.90;;;6.38;;
56537;SDS011;42435;53.292;6.000;2023-10-19T07:34:13;9.48;;;6.10;;
56537;SDS011;42435;53.292;6.000;2023-10-19T07:36:40;8.40;;;6.22;;
56537;SDS011;42435;53.292;6.000;2023-10-19T07:39:07;13.25;;;7.72;;
56537;SDS011;42435;53.292;6.000;2023-10-19T07:41:42;9.25;;;6.45;;
56537;SDS011;42435;53.292;6.000;2023-10-19T07:44:08;8.10;;;5.85;;
56537;SDS011;42435;53.292;6.000;2023-10-19T07:46:33;8.55;;;6.38;;
56537;SDS011;42435;53.292;6.000;2023-10-19T07:48:59;8.45;;;6.60;;
56537;SDS011;42435;53.292;6.000;2023-10-19T07:51:25;8.35;;;6.10;;
56537;SDS011;42435;53.292;6.000;2023-10-19T07:53:51;8.55;;;6.28;;
56537;SDS011;42435;53.292;6.000;2023-10-19T07:56:17;12.02;;;6.85;;
56537;SDS011;42435;53.292;6.000;2023-10-19T07:58:42;8.85;;;6.32;;
56537;SDS011;42435;53.292;6.000;2023-10-19T08:01:08;7.93;;;6.45;;
56537;SDS011;42435;53.292;6.000;2023-10-19T08:03:34;12.30;;;7.53;;
56537;SDS011;42435;53.292;6.000;2023-10-19T08:06:00;7.65;;;6.35;;
56537;SDS011;42435;53.292;6.000;2023-10-19T08:08:26;8.82;;;6.88;;
56537;SDS011;42435;53.292;6.000;2023-10-19T08:10:58;12.70;;;7.57;;
56537;SDS011;42435;53.292;6.000;2023-10-19T08:13:24;9.40;;;6.38;;
56537;SDS011;42435;53.292;6.000;2023-10-19T08:15:51;9.15;;;6.13;;
56537;SDS011;42435;53.292;6.000;2023-10-19T08:18:17;11.25;;;7.18;;
56537;SDS011;42435;53.292;6.000;2023-10-19T08:20:43;7.43;;;5.40;;
56537;SDS011;42435;53.292;6.000;2023-10-19T08:23:14;9.65;;;6.68;;
56537;SDS011;42435;53.292;6.000;2023-10-19T08:25:41;8.25;;;6.53;;
56537;SDS011;42435;53.292;6.000;2023-10-19T08:28:09;11.05;;;6.70;;
56537;SDS011;42435;53.292;6.000;2023-10-19T08:30:36;8.98;;;6.88;;
56537;SDS011;42435;53.292;6.000;2023-10-19T08:33:02;9.80;;;7.45;;
56537;SDS011;42435;53.292;6.000;2023-10-19T08:35:28;8.43;;;6.45;;
56537;SDS011;42435;53.292;6.000;2023-10-19T08:37:58;8.20;;;6.95;;
56537;SDS011;42435;53.292;6.000;2023-10-19T08:40:27;8.25;;;6.32;;
56537;SDS011;42435;53.292;6.000;2023-10-19T08:42:55;10.65;;;7.15;;
56537;SDS011;42435;53.292;6.000;2023-10-19T08:45:21;10.65;;;7.70;;
56537;SDS011;42435;53.292;6.000;2023-10-19T08:47:57;12.23;;;8.20;;
56537;SDS011;42435;53.292;6.000;2023-10-19T08:50:28;10.05;;;7.15;;
56537;SDS011;42435;53.292;6.000;2023-10-19T08:53:02;12.18;;;7.60;;
56537;SDS011;42435;53.292;6.000;2023-10-19T08:55:29;8.90;;;6.45;;
56537;SDS011;42435;53.292;6.000;2023-10-19T08:57:55;9.98;;;7.38;;
56537;SDS011;42435;53.292;6.000;2023-10-19T09:00:23;12.52;;;8.10;;
56537;SDS011;42435;53.292;6.000;2023-10-19T09:02:50;11.60;;;6.82;;
56537;SDS011;42435;53.292;6.000;2023-10-19T09:05:17;9.50;;;6.55;;
56537;SDS011;42435;53.292;6.000;2023-10-19T09:07:51;15.07;;;8.80;;
56537;SDS011;42435;53.292;6.000;2023-10-19T09:10:24;15.15;;;7.85;;
56537;SDS011;42435;53.292;6.000;2023-10-19T09:13:06;11.32;;;7.68;;
56537;SDS011;42435;53.292;6.000;2023-10-19T09:15:37;10.20;;;6.45;;
56537;SDS011;42435;53.292;6.000;2023-10-19T09:18:13;11.80;;;7.47;;
56537;SDS011;42435;53.292;6.000;2023-10-19T09:20:39;9.77;;;7.13;;
56537;SDS011;42435;53.292;6.000;2023-10-19T09:23:07;12.32;;;7.60;;
56537;SDS011;42435;53.292;6.000;2023-10-19T09:25:33;9.98;;;7.38;;
56537;SDS011;42435;53.292;6.000;2023-10-19T09:28:00;10.68;;;7.65;;
56537;SDS011;42435;53.292;6.000;2023-10-19T09:30:27;11.18;;;6.97;;
56537;SDS011;42435;53.292;6.000;2023-10-19T09:32:56;17.10;;;9.63;;
56537;SDS011;42435;53.292;6.000;2023-10-19T09:35:24;25.38;;;11.07;;
56537;SDS011;42435;53.292;6.000;2023-10-19T09:37:55;13.52;;;8.93;;
56537;SDS011;42435;53.292;6.000;2023-10-19T09:40:22;19.40;;;9.32;;
56537;SDS011;42435;53.292;6.000;2023-10-19T09:42:49;12.70;;;7.85;;
56537;SDS011;42435;53.292;6.000;2023-10-19T09:45:18;12.18;;;8.75;;
56537;SDS011;42435;53.292;6.000;2023-10-19T09:47:49;15.88;;;9.70;;
56537;SDS011;42435;53.292;6.000;2023-10-19T09:50:19;14.43;;;9.00;;
56537;SDS011;42435;53.292;6.000;2023-10-19T09:52:44;19.60;;;9.98;;
56537;SDS011;42435;53.292;6.000;2023-10-19T09:57:58;14.73;;;9.52;;
56537;SDS011;42435;53.292;6.000;2023-10-19T10:00:32;16.92;;;10.38;;
56537;SDS011;42435;53.292;6.000;2023-10-19T10:02:59;19.63;;;11.57;;
56537;SDS011;42435;53.292;6.000;2023-10-19T10:10:43;18.92;;;10.70;;
56537;SDS011;42435;53.292;6.000;2023-10-19T10:15:56;13.05;;;9.43;;
56537;SDS011;42435;53.292;6.000;2023-10-19T10:18:23;16.45;;;10.35;;
56537;SDS011;42435;53.292;6.000;2023-10-19T10:23:59;19.42;;;11.93;;
56537;SDS011;42435;53.292;6.000;2023-10-19T10:26:56;18.15;;;10.40;;
56537;SDS011;42435;53.292;6.000;2023-10-19T10:29:23;15.65;;;8.95;;
56537;SDS011;42435;53.292;6.000;2023-10-19T10:31:49;17.77;;;10.18;;
56537;SDS011;42435;53.292;6.000;2023-10-19T10:37:03;18.33;;;9.80;;
56537;SDS011;42435;53.292;6.000;2023-10-19T10:39:33;12.68;;;9.32;;
56537;SDS011;42435;53.292;6.000;2023-10-19T10:42:02;13.43;;;9.20;;
56537;SDS011;42435;53.292;6.000;2023-10-19T10:44:42;13.98;;;8.95;;
56537;SDS011;42435;53.292;6.000;2023-10-19T10:47:09;14.68;;;9.95;;
56537;SDS011;42435;53.292;6.000;2023-10-19T10:54:52;12.63;;;8.18;;
56537;SDS011;42435;53.292;6.000;2023-10-19T10:57:19;15.70;;;9.48;;
56537;SDS011;42435;53.292;6.000;2023-10-19T10:59:45;20.70;;;10.52;;
56537;SDS011;42435;53.292;6.000;2023-10-19T11:02:17;15.75;;;10.68;;
56537;SDS011;42435;53.292;6.000;2023-10-19T11:04:44;14.45;;;10.10;;
56537;SDS011;42435;53.292;6.000;2023-10-19T11:07:17;15.43;;;9.80;;
56537;SDS011;42435;53.292;6.000;2023-10-19T11:09:44;16.02;;;10.00;;
56537;SDS011;42435;53.292;6.000;2023-10-19T11:12:14;14.32;;;10.27;;
56537;SDS011;42435;53.292;6.000;2023-10-19T11:14:57;16.23;;;9.98;;
56537;SDS011;42435;53.292;6.000;2023-10-19T11:17:41;16.30;;;10.05;;
56537;SDS011;42435;53.292;6.000;2023-10-19T11:20:08;15.13;;;9.70;;
56537;SDS011;42435;53.292;6.000;2023-10-19T11:22:47;17.65;;;10.20;;
56537;SDS011;42435;53.292;6.000;2023-10-19T11:25:18;15.45;;;10.05;;
56537;SDS011;42435;53.292;6.000;2023-10-19T11:27:44;16.85;;;10.55;;
56537;SDS011;42435;53.292;6.000;2023-10-19T11:30:10;15.77;;;10.27;;
56537;SDS011;42435;53.292;6.000;2023-10-19T11:32:37;19.13;;;12.18;;
56537;SDS011;42435;53.292;6.000;2023-10-19T11:35:03;17.67;;;11.63;;
56537;SDS011;42435;53.292;6.000;2023-10-19T11:37:29;17.95;;;11.68;;
56537;SDS011;42435;53.292;6.000;2023-10-19T11:39:55;19.90;;;11.80;;
56537;SDS011;42435;53.292;6.000;2023-10-19T11:42:20;17.67;;;12.52;;
56537;SDS011;42435;53.292;6.000;2023-10-19T11:44:46;20.65;;;13.05;;
56537;SDS011;42435;53.292;6.000;2023-10-19T11:47:11;20.42;;;12.43;;
56537;SDS011;42435;53.292;6.000;2023-10-19T11:49:38;20.95;;;11.88;;
56537;SDS011;42435;53.292;6.000;2023-10-19T11:52:07;17.77;;;11.52;;
56537;SDS011;42435;53.292;6.000;2023-10-19T11:54:34;26.02;;;12.90;;
56537;SDS011;42435;53.292;6.000;2023-10-19T11:56:59;18.35;;;12.25;;
56537;SDS011;42435;53.292;6.000;2023-10-19T11:59:28;18.88;;;10.15;;
56537;SDS011;42435;53.292;6.000;2023-10-19T12:01:54;15.50;;;10.75;;
56537;SDS011;42435;53.292;6.000;2023-10-19T12:04:19;18.63;;;10.65;;
56537;SDS011;42435;53.292;6.000;2023-10-19T12:06:45;14.95;;;9.80;;
56537;SDS011;42435;53.292;6.000;2023-10-19T12:09:13;17.92;;;11.40;;
56537;SDS011;42435;53.292;6.000;2023-10-19T12:11:44;16.65;;;10.23;;
56537;SDS011;42435;53.292;6.000;2023-10-19T12:14:09;12.68;;;9.30;;
56537;SDS011;42435;53.292;6.000;2023-10-19T12:16:39;19.02;;;11.35;;
56537;SDS011;42435;53.292;6.000;2023-10-19T12:19:05;13.27;;;10.25;;
56537;SDS011;42435;53.292;6.000;2023-10-19T12:21:33;17.67;;;10.63;;
56537;SDS011;42435;53.292;6.000;2023-10-19T12:23:59;13.50;;;9.73;;
56537;SDS011;42435;53.292;6.000;2023-10-19T12:26:26;15.45;;;10.07;;
56537;SDS011;42435;53.292;6.000;2023-10-19T12:28:52;22.65;;;10.85;;
56537;SDS011;42435;53.292;6.000;2023-10-19T12:31:18;12.50;;;9.77;;
56537;SDS011;42435;53.292;6.000;2023-10-19T12:33:43;13.48;;;9.77;;
56537;SDS011;42435;53.292;6.000;2023-10-19T12:36:10;12.75;;;9.40;;
56537;SDS011;42435;53.292;6.000;2023-10-19T12:38:54;12.13;;;9.68;;
56537;SDS011;42435;53.292;6.000;2023-10-19T12:41:20;12.73;;;10.73;;
56537;SDS011;42435;53.292;6.000;2023-10-19T12:43:46;13.80;;;11.25;;
56537;SDS011;42435;53.292;6.000;2023-10-19T12:46:13;13.07;;;10.40;;
56537;SDS011;42435;53.292;6.000;2023-10-19T12:48:45;14.90;;;11.55;;
56537;SDS011;42435;53.292;6.000;2023-10-19T12:51:13;14.18;;;11.40;;
56537;SDS011;42435;53.292;6.000;2023-10-19T12:53:40;13.60;;;11.63;;
56537;SDS011;42435;53.292;6.000;2023-10-19T12:56:05;13.38;;;11.00;;
56537;SDS011;42435;53.292;6.000;2023-10-19T12:58:32;10.10;;;8.50;;
56537;SDS011;42435;53.292;6.000;2023-10-19T13:00:58;13.98;;;10.48;;
56537;SDS011;42435;53.292;6.000;2023-10-19T13:03:24;13.82;;;10.23;;
56537;SDS011;42435;53.292;6.000;2023-10-19T13:05:55;12.10;;;10.30;;
56537;SDS011;42435;53.292;6.000;2023-10-19T13:08:23;11.65;;;9.45;;
56537;SDS011;42435;53.292;6.000;2023-10-19T13:10:52;15.40;;;10.32;;
56537;SDS011;42435;53.292;6.000;2023-10-19T13:13:19;12.13;;;10.45;;
56537;SDS011;42435;53.292;6.000;2023-10-19T13:15:47;11.48;;;10.20;;
56537;SDS011;42435;53.292;6.000;2023-10-19T13:18:13;14.00;;;11.20;;
56537;SDS011;42435;53.292;6.000;2023-10-19T13:20:45;13.75;;;10.45;;
56537;SDS011;42435;53.292;6.000;2023-10-19T13:23:11;15.52;;;11.20;;
56537;SDS011;42435;53.292;6.000;2023-10-19T13:25:37;19.73;;;13.27;;
56537;SDS011;42435;53.292;6.000;2023-10-19T13:28:15;20.42;;;13.38;;
56537;SDS011;42435;53.292;6.000;2023-10-19T13:30:45;18.23;;;12.98;;
56537;SDS011;42435;53.292;6.000;2023-10-19T13:33:16;21.77;;;12.80;;
56537;SDS011;42435;53.292;6.000;2023-10-19T13:35:43;25.88;;;14.68;;
56537;SDS011;42435;53.292;6.000;2023-10-19T13:38:10;37.58;;;18.85;;
56537;SDS011;42435;53.292;6.000;2023-10-19T13:40:38;26.83;;;15.75;;
56537;SDS011;42435;53.292;6.000;2023-10-19T13:43:05;35.08;;;17.48;;
56537;SDS011;42435;53.292;6.000;2023-10-19T13:45:33;29.75;;;15.43;;
56537;SDS011;42435;53.292;6.000;2023-10-19T13:48:02;25.90;;;16.00;;
56537;SDS011;42435;53.292;6.000;2023-10-19T13:50:32;26.65;;;15.20;;
56537;SDS011;42435;53.292;6.000;2023-10-19T13:53:00;32.67;;;17.50;;
56537;SDS011;42435;53.292;6.000;2023-10-19T13:55:27;22.42;;;13.27;;
56537;SDS011;42435;53.292;6.000;2023-10-19T13:57:53;27.85;;;14.85;;
56537;SDS011;42435;53.292;6.000;2023-10-19T14:00:21;28.42;;;16.05;;
56537;SDS011;42435;53.292;6.000;2023-10-19T14:02:55;38.75;;;18.90;;
56537;SDS011;42435;53.292;6.000;2023-10-19T14:05:25;31.25;;;15.95;;
56537;SDS011;42435;53.292;6.000;2023-10-19T14:07:51;27.15;;;15.85;;
56537;SDS011;42435;53.292;6.000;2023-10-19T14:10:17;27.08;;;14.95;;
56537;SDS011;42435;53.292;6.000;2023-10-19T14:12:44;26.42;;;15.73;;
56537;SDS011;42435;53.292;6.000;2023-10-19T14:15:18;24.60;;;14.25;;
56537;SDS011;42435;53.292;6.000;2023-10-19T14:17:45;22.17;;;13.23;;
56537;SDS011;42435;53.292;6.000;2023-10-19T14:20:13;27.98;;;14.10;;
56537;SDS011;42435;53.292;6.000;2023-10-19T14:22:43;24.05;;;12.35;;
56537;SDS011;42435;53.292;6.000;2023-10-19T14:25:21;22.08;;;12.93;;
56537;SDS011;42435;53.292;6.000;2023-10-19T14:27:49;24.67;;;11.77;;
56537;SDS011;42435;53.292;6.000;2023-10-19T14:30:17;23.10;;;13.25;;
56537;SDS011;42435;53.292;6.000;2023-10-19T14:32:47;21.90;;;12.23;;
56537;SDS011;42435;53.292;6.000;2023-10-19T14:35:15;21.33;;;11.35;;
56537;SDS011;42435;53.292;6.000;2023-10-19T14:37:42;23.35;;;12.45;;
56537;SDS011;42435;53.292;6.000;2023-10-19T14:40:16;24.02;;;11.57;;
56537;SDS011;42435;53.292;6.000;2023-10-19T14:42:49;20.13;;;12.50;;
56537;SDS011;42435;53.292;6.000;2023-10-19T14:45:19;21.33;;;11.98;;
56537;SDS011;42435;53.292;6.000;2023-10-19T14:47:48;25.90;;;13.25;;
56537;SDS011;42435;53.292;6.000;2023-10-19T14:50:19;21.73;;;11.68;;
56537;SDS011;42435;53.292;6.000;2023-10-19T14:52:46;18.95;;;12.13;;
56537;SDS011;42435;53.292;6.000;2023-10-19T14:55:13;29.08;;;12.93;;
56537;SDS011;42435;53.292;6.000;2023-10-19T14:57:41;19.67;;;11.52;;
56537;SDS011;42435;53.292;6.000;2023-10-19T15:00:08;25.10;;;12.98;;
56537;SDS011;42435;53.292;6.000;2023-10-19T15:02:46;25.58;;;13.00;;
56537;SDS011;42435;53.292;6.000;2023-10-19T15:05:14;19.95;;;12.75;;
56537;SDS011;42435;53.292;6.000;2023-10-19T15:07:45;32.97;;;15.00;;